Aviation Digital Data Service (ADDS)

Output produced by METARs form (1858 UTC 19 September 2017)
found at http://www.aviationweather.gov/adds/metars/
 
KSAV 191853Z 27005KT 10SM FEW050 BKN100 BKN200 32/18 A2995 RMK AO2 SLP142 T03170183